Time;durP1;ratioP1;P1;durP2;ratioP2;P2;SDS_P1;SDS_P2;PMS_P1;PMS_P2;Temp;Humidity;BMP_temperature;BMP_pressure;BME280_temperature;BME280_humidity;BME280_pressure;Samples;Min_cycle;Max_cycle;Signal;HPM_P1;HPM_P2
2024/01/01 00:01:40;;;;;;;;;;;;;;;7.60;83.42;99751.19;4915424;29;20092;-88
2024/01/01 00:04:05;;;;;;;;;;;;;;;7.60;83.56;99752.94;4931583;29;19965;-89
2024/01/01 00:06:31;;;;;;;;;;;;;;;7.59;83.57;99753.84;4911949;29;19982;-89
2024/01/01 00:08:56;;;;;;;;;;;;;;;7.59;83.85;99761.59;4913921;29;19955;-89
2024/01/01 00:11:21;;;;;;;;;;;;;;;7.67;82.99;99753.59;4913803;29;19921;-89
2024/01/01 00:13:47;;;;;;;;;;;;;;;7.60;83.63;99753.78;4931678;29;19915;-90
2024/01/01 00:16:13;;;;;;;;;;;;;;;7.60;83.10;99761.53;4914764;29;20030;-89
2024/01/01 00:18:39;;;;;;;;;;;;;;;7.59;83.14;99761.59;4930956;29;19922;-89
2024/01/01 00:21:07;;;;;;;;;;;;;;;7.60;82.69;99758.94;4913359;29;19914;-89
2024/01/01 00:23:34;;;;;;;;;;;;;;;7.75;81.74;99783.53;4917878;29;19938;-88
2024/01/01 00:26:04;;;;;;;;;;;;;;;7.61;82.57;99796.06;4914544;29;19929;-88
2024/01/01 00:28:29;;;;;;;;;;;;;;;7.57;82.57;99781.50;4932865;29;20033;-88
2024/01/01 00:30:55;;;;;;;;;;;;;;;7.51;83.28;99773.94;4915560;29;20445;-89
2024/01/01 00:33:20;;;;;;;;;;;;;;;7.52;82.27;99785.97;4915264;29;19918;-89
2024/01/01 00:35:47;;;;;;;;;;;;;;;7.39;82.53;99781.16;4910131;29;20343;-88
2024/01/01 00:38:12;;;;;;;;;;;;;;;7.34;83.24;99777.88;4915168;29;19958;-86
2024/01/01 00:40:38;;;;;;;;;;;;;;;7.28;83.80;99773.72;4916448;29;19961;-86
2024/01/01 00:43:03;;;;;;;;;;;;;;;7.22;84.33;99779.09;4915467;29;19953;-87
2024/01/01 00:45:28;;;;;;;;;;;;;;;7.16;84.67;99778.44;4931127;29;19925;-87
2024/01/01 00:47:54;;;;;;;;;;;;;;;7.08;85.11;99782.06;4913985;29;21088;-87
2024/01/01 00:50:19;;;;;;;;;;;;;;;6.99;85.49;99779.75;4935019;29;19969;-86
2024/01/01 00:52:44;;;;;;;;;;;;;;;6.87;86.09;99773.19;4936228;29;20163;-86
2024/01/01 00:55:09;;;;;;;;;;;;;;;6.90;86.04;99782.56;4920315;29;19915;-87
2024/01/01 00:57:35;;;;;;;;;;;;;;;6.75;86.79;99784.69;4915459;29;19958;-86
2024/01/01 01:00:00;;;;;;;;;;;;;;;6.71;86.65;99796.00;4934855;29;20397;-87
2024/01/01 01:02:25;;;;;;;;;;;;;;;6.57;87.03;99786.03;4916163;29;21476;-86
2024/01/01 01:04:51;;;;;;;;;;;;;;;6.48;87.30;99779.38;4934785;29;19915;-86
2024/01/01 01:07:16;;;;;;;;;;;;;;;6.43;88.14;99791.56;4916726;29;20298;-87
2024/01/01 01:09:41;;;;;;;;;;;;;;;6.43;87.99;99783.81;4918781;29;19950;-86
2024/01/01 01:12:07;;;;;;;;;;;;;;;6.37;87.87;99781.38;4916722;29;19915;-86
2024/01/01 01:14:32;;;;;;;;;;;;;;;6.29;88.40;99791.06;4935015;29;20397;-86
2024/01/01 01:16:57;;;;;;;;;;;;;;;6.19;88.79;99791.28;4935256;29;19934;-86
2024/01/01 01:19:22;;;;;;;;;;;;;;;6.17;88.92;99781.88;4934875;29;19914;-86
2024/01/01 01:21:47;;;;;;;;;;;;;;;6.16;89.38;99783.59;4919263;29;19914;-86
2024/01/01 01:24:15;;;;;;;;;;;;;;;6.13;89.56;99796.63;4919635;29;19914;-86
2024/01/01 01:26:41;;;;;;;;;;;;;;;6.07;89.90;99801.91;4920715;29;19915;-87
2024/01/01 01:29:06;;;;;;;;;;;;;;;6.12;90.49;99801.81;4917968;29;19918;-86
2024/01/01 01:31:31;;;;;;;;;;;;;;;6.13;90.81;99796.63;4919768;29;19915;-86
2024/01/01 01:33:56;;;;;;;;;;;;;;;6.11;91.23;99790.63;4922396;29;19921;-86
2024/01/01 01:36:22;;;;;;;;;;;;;;;6.16;91.32;99804.25;4919214;29;20290;-87
2024/01/01 01:38:47;;;;;;;;;;;;;;;6.17;91.21;99798.22;4935006;29;19946;-87
2024/01/01 01:41:12;;;;;;;;;;;;;;;6.20;91.56;99805.06;4911229;29;19919;-87
2024/01/01 01:43:37;;;;;;;;;;;;;;;6.20;91.54;99807.63;4917768;29;19918;-88
2024/01/01 01:46:03;;;;;;;;;;;;;;;6.26;91.24;99806.63;4918463;29;20052;-87
2024/01/01 01:48:29;;;;;;;;;;;;;;;6.17;91.90;99808.53;4917848;29;20005;-88
2024/01/01 01:50:54;;;;;;;;;;;;;;;6.19;92.12;99817.09;4935096;29;19914;-87
2024/01/01 01:53:25;;;;;;;;;;;;;;;6.18;92.32;99809.41;4919350;29;19922;-88
2024/01/01 01:55:52;;;;;;;;;;;;;;;6.16;92.74;99817.19;4936549;29;19970;-87
2024/01/01 01:58:18;;;;;;;;;;;;;;;6.18;92.55;99809.41;4917540;29;20004;-88
2024/01/01 02:00:47;;;;;;;;;;;;;;;6.14;93.22;99790.56;4934171;29;20419;-88
2024/01/01 02:03:13;;;;;;;;;;;;;;;6.08;93.25;99801.03;4913283;29;20289;-87
2024/01/01 02:05:38;;;;;;;;;;;;;;;6.04;93.67;99801.97;4936211;29;20005;-88
2024/01/01 02:08:04;;;;;;;;;;;;;;;6.08;94.12;99803.63;4918812;29;19925;-87
2024/01/01 02:10:30;;;;;;;;;;;;;;;6.09;94.72;99813.06;4932668;29;19957;-87
2024/01/01 02:12:55;;;;;;;;;;;;;;;6.10;94.72;99806.16;4920128;29;19950;-87
2024/01/01 02:15:20;;;;;;;;;;;;;;;6.10;95.08;99795.81;4917856;29;20035;-88
2024/01/01 02:17:46;;;;;;;;;;;;;;;6.14;95.56;99813.81;4918294;29;19965;-88
2024/01/01 02:20:11;;;;;;;;;;;;;;;6.10;95.31;99807.00;4932975;29;19990;-87
2024/01/01 02:22:37;;;;;;;;;;;;;;;6.16;96.08;99798.25;4934013;29;19970;-87
2024/01/01 02:25:03;;;;;;;;;;;;;;;6.17;96.26;99813.72;4917583;29;19915;-88
2024/01/01 02:27:28;;;;;;;;;;;;;;;6.12;96.64;99810.41;4917964;29;19919;-87
2024/01/01 02:29:53;;;;;;;;;;;;;;;6.19;96.91;99811.09;4914630;29;19978;-88
2024/01/01 02:32:18;;;;;;;;;;;;;;;6.16;97.38;99812.00;4917243;29;19921;-89
2024/01/01 02:34:44;;;;;;;;;;;;;;;6.16;97.88;99811.19;4934200;29;19914;-87
2024/01/01 02:37:09;;;;;;;;;;;;;;;6.17;97.87;99802.53;4934355;29;19982;-88
2024/01/01 02:39:34;;;;;;;;;;;;;;;6.19;97.91;99819.69;4917517;29;19970;-87
2024/01/01 02:41:59;;;;;;;;;;;;;;;6.17;97.56;99824.03;4918394;29;19921;-86
2024/01/01 02:44:25;;;;;;;;;;;;;;;6.15;98.03;99825.81;4917281;29;19965;-88
2024/01/01 02:46:50;;;;;;;;;;;;;;;6.26;97.96;99832.47;4916789;29;19926;-87
2024/01/01 02:49:15;;;;;;;;;;;;;;;6.23;97.85;99836.81;4916872;29;20358;-87
2024/01/01 02:51:43;;;;;;;;;;;;;;;6.23;97.86;99834.22;4934262;29;19969;-87
2024/01/01 02:54:08;;;;;;;;;;;;;;;6.37;98.58;99825.28;4918306;29;20211;-87
2024/01/01 02:56:34;;;;;;;;;;;;;;;6.34;98.79;99831.41;4920694;29;19914;-87
2024/01/01 02:58:59;;;;;;;;;;;;;;;6.33;99.10;99826.25;4933244;29;19982;-87
2024/01/01 03:01:24;;;;;;;;;;;;;;;6.34;99.51;99823.66;4934284;29;20371;-87
2024/01/01 03:03:49;;;;;;;;;;;;;;;6.30;100.00;99823.75;4916573;29;20358;-88
2024/01/01 03:06:18;;;;;;;;;;;;;;;6.36;99.31;99829.63;4934259;28;20327;-87
2024/01/01 03:08:44;;;;;;;;;;;;;;;6.29;99.89;99829.81;4930026;29;19940;-87
2024/01/01 03:11:09;;;;;;;;;;;;;;;6.24;100.00;99824.72;4918175;29;19929;-87
2024/01/01 03:13:34;;;;;;;;;;;;;;;6.24;99.86;99827.31;4933183;29;20009;-89
2024/01/01 03:16:00;;;;;;;;;;;;;;;6.23;100.00;99828.22;4934189;29;20014;-87
2024/01/01 03:18:25;;;;;;;;;;;;;;;6.22;100.00;99832.53;4933719;29;19927;-87
2024/01/01 03:20:50;;;;;;;;;;;;;;;6.18;100.00;99830.91;4933296;29;20017;-87
2024/01/01 03:23:16;;;;;;;;;;;;;;;6.17;100.00;99829.19;4916365;29;19922;-89
2024/01/01 03:25:41;;;;;;;;;;;;;;;6.20;99.94;99836.88;4931982;29;20423;-87
2024/01/01 03:28:09;;;;;;;;;;;;;;;6.18;100.00;99848.97;4934614;29;20369;-88
2024/01/01 03:30:34;;;;;;;;;;;;;;;6.17;100.00;99834.38;4934283;29;19914;-87
2024/01/01 03:32:59;;;;;;;;;;;;;;;6.21;99.70;99843.75;4918583;29;19969;-86
2024/01/01 03:35:25;;;;;;;;;;;;;;;6.20;99.47;99860.13;4935743;29;19961;-87
2024/01/01 03:37:50;;;;;;;;;;;;;;;6.26;98.37;99853.13;4917338;29;20402;-86
2024/01/01 03:40:15;;;;;;;;;;;;;;;6.20;98.42;99849.78;4935103;29;20338;-87
2024/01/01 03:42:40;;;;;;;;;;;;;;;6.20;98.50;99842.06;4935303;29;19914;-87
2024/01/01 03:45:06;;;;;;;;;;;;;;;6.26;98.17;99853.13;4917907;28;19914;-87
2024/01/01 03:47:34;;;;;;;;;;;;;;;6.25;97.97;99847.09;4919994;29;19970;-88
2024/01/01 03:49:59;;;;;;;;;;;;;;;6.23;98.00;99841.97;4934957;29;19918;-87
2024/01/01 03:52:25;;;;;;;;;;;;;;;6.25;97.96;99861.75;4936730;29;20366;-86
2024/01/01 03:54:50;;;;;;;;;;;;;;;6.29;97.50;99853.06;4932887;29;20438;-86
2024/01/01 03:57:15;;;;;;;;;;;;;;;6.28;97.06;99859.94;4935574;29;19930;-87
2024/01/01 03:59:40;;;;;;;;;;;;;;;6.26;97.14;99837.63;4935590;29;19927;-88
2024/01/01 04:02:06;;;;;;;;;;;;;;;6.29;97.11;99837.56;4931682;29;19930;-87
2024/01/01 04:04:31;;;;;;;;;;;;;;;6.27;97.22;99844.50;4917820;29;19914;-88
2024/01/01 04:06:56;;;;;;;;;;;;;;;6.31;96.32;99856.47;4918214;29;19922;-87
2024/01/01 04:09:21;;;;;;;;;;;;;;;6.31;96.09;99846.97;4935861;29;20030;-87
2024/01/01 04:11:47;;;;;;;;;;;;;;;6.29;96.25;99847.91;4920118;29;20048;-86
2024/01/01 04:14:13;;;;;;;;;;;;;;;6.20;96.57;99843.78;4916262;29;19930;-86
2024/01/01 04:16:38;;;;;;;;;;;;;;;6.23;96.23;99843.72;4933699;29;20350;-87
2024/01/01 04:19:03;;;;;;;;;;;;;;;6.17;96.62;99847.28;4935329;29;19914;-87
2024/01/01 04:21:29;;;;;;;;;;;;;;;6.21;96.61;99855.81;4935981;29;19950;-87
2024/01/01 04:23:55;;;;;;;;;;;;;;;6.30;95.59;99855.59;4919765;29;19930;-86
2024/01/01 04:26:20;;;;;;;;;;;;;;;6.29;95.53;99837.56;4938546;28;19914;-87
2024/01/01 04:28:46;;;;;;;;;;;;;;;6.22;95.59;99853.19;4922766;29;19925;-87
2024/01/01 04:31:11;;;;;;;;;;;;;;;6.22;95.24;99855.78;4939134;29;19915;-87
2024/01/01 04:33:36;;;;;;;;;;;;;;;6.14;95.49;99849.97;4938303;29;19919;-87
2024/01/01 04:36:03;;;;;;;;;;;;;;;6.21;95.59;99848.91;4938554;29;20001;-87
2024/01/01 04:38:28;;;;;;;;;;;;;;;6.19;95.33;99848.09;4921337;29;20373;-86
2024/01/01 04:40:54;;;;;;;;;;;;;;;6.23;95.25;99852.31;4924160;29;19922;-87
2024/01/01 04:43:19;;;;;;;;;;;;;;;6.23;94.99;99856.66;4941179;29;19914;-87
2024/01/01 04:45:44;;;;;;;;;;;;;;;6.19;95.12;99855.84;4921466;29;19922;-87
2024/01/01 04:48:10;;;;;;;;;;;;;;;6.27;94.72;99852.25;4939647;29;19923;-86
2024/01/01 04:50:35;;;;;;;;;;;;;;;6.32;94.10;99842.66;4938788;29;19930;-87
2024/01/01 04:53:00;;;;;;;;;;;;;;;6.26;94.51;99863.47;4941689;29;19915;-87
2024/01/01 04:55:25;;;;;;;;;;;;;;;6.26;94.26;99876.38;4940409;29;19927;-87
2024/01/01 04:57:51;;;;;;;;;;;;;;;6.29;94.12;99860.81;4936809;29;19954;-86
2024/01/01 05:00:16;;;;;;;;;;;;;;;6.22;94.34;99855.78;4939223;29;20294;-87
2024/01/01 05:02:41;;;;;;;;;;;;;;;6.25;94.21;99866.94;4937579;29;20370;-86
2024/01/01 05:05:08;;;;;;;;;;;;;;;6.26;94.14;99866.88;4938527;29;19922;-86
2024/01/01 05:07:34;;;;;;;;;;;;;;;6.23;94.02;99875.56;4937766;29;19938;-86
2024/01/01 05:09:59;;;;;;;;;;;;;;;6.20;94.12;99869.63;4937888;29;19915;-87
2024/01/01 05:12:24;;;;;;;;;;;;;;;6.22;94.12;99884.19;4940192;29;19915;-87
2024/01/01 05:14:49;;;;;;;;;;;;;;;6.26;94.35;99881.53;4938038;29;19915;-86
2024/01/01 05:17:16;;;;;;;;;;;;;;;6.28;93.63;99885.78;4924118;29;20061;-86
2024/01/01 05:19:41;;;;;;;;;;;;;;;6.24;93.84;99876.38;4935560;29;20021;-87
2024/01/01 05:22:06;;;;;;;;;;;;;;;6.22;93.93;99884.19;4939338;29;20017;-87
2024/01/01 05:24:31;;;;;;;;;;;;;;;6.21;93.93;99877.31;4936910;29;19915;-87
2024/01/01 05:26:57;;;;;;;;;;;;;;;6.20;93.96;99888.53;4935420;29;19918;-87
2024/01/01 05:29:22;;;;;;;;;;;;;;;6.18;94.30;99898.06;4939226;29;20421;-87
2024/01/01 05:31:47;;;;;;;;;;;;;;;6.16;94.59;99892.06;4935670;29;20281;-87
2024/01/01 05:34:15;;;;;;;;;;;;;;;6.19;94.52;99912.66;4933153;29;20024;-86
2024/01/01 05:36:40;;;;;;;;;;;;;;;6.21;94.41;99902.31;4916631;29;19922;-87
2024/01/01 05:39:06;;;;;;;;;;;;;;;6.19;94.23;99910.09;4938238;29;19923;-87
2024/01/01 05:41:31;;;;;;;;;;;;;;;6.20;94.34;99910.94;4935544;29;19922;-87
2024/01/01 05:43:56;;;;;;;;;;;;;;;6.21;94.34;99915.22;4920822;29;19922;-87
2024/01/01 05:46:21;;;;;;;;;;;;;;;6.29;94.04;99913.31;4937588;29;19922;-87
2024/01/01 05:48:46;;;;;;;;;;;;;;;6.20;94.26;99905.78;4935770;29;20006;-88
2024/01/01 05:51:12;;;;;;;;;;;;;;;6.26;94.26;99915.13;4938734;29;19930;-87
2024/01/01 05:53:37;;;;;;;;;;;;;;;6.27;93.62;99911.66;4939018;29;19970;-87
2024/01/01 05:56:06;;;;;;;;;;;;;;;6.19;94.03;99925.56;4936832;29;19960;-86
2024/01/01 05:58:31;;;;;;;;;;;;;;;6.23;93.88;99914.31;4918184;29;20000;-88
2024/01/01 06:00:56;;;;;;;;;;;;;;;6.30;93.32;99919.34;4933790;29;20402;-87
2024/01/01 06:03:22;;;;;;;;;;;;;;;6.28;93.66;99923.69;4936106;29;19997;-86
2024/01/01 06:05:47;;;;;;;;;;;;;;;6.25;93.89;99934.09;4936532;29;19950;-86
2024/01/01 06:08:12;;;;;;;;;;;;;;;6.28;93.49;99945.19;4936882;29;20367;-87
2024/01/01 06:10:37;;;;;;;;;;;;;;;6.20;93.83;99941.94;4935267;29;20290;-86
2024/01/01 06:13:03;;;;;;;;;;;;;;;6.20;93.71;99949.69;4938442;29;19954;-88
2024/01/01 06:15:28;;;;;;;;;;;;;;;6.17;94.23;99957.50;4937892;29;19914;-86
2024/01/01 06:17:53;;;;;;;;;;;;;;;6.16;94.75;99956.63;4938304;29;19961;-87
2024/01/01 06:20:19;;;;;;;;;;;;;;;6.19;94.88;99951.41;4935255;29;20011;-86
2024/01/01 06:22:46;;;;;;;;;;;;;;;6.13;95.67;99958.44;4934887;29;19922;-87
2024/01/01 06:25:11;;;;;;;;;;;;;;;6.11;96.05;99963.66;4936542;29;19915;-86
2024/01/01 06:27:37;;;;;;;;;;;;;;;6.04;96.58;99956.91;4936850;29;20013;-87
2024/01/01 06:30:03;;;;;;;;;;;;;;;6.10;96.45;99967.13;4936599;29;19966;-86
2024/01/01 06:32:28;;;;;;;;;;;;;;;6.07;96.71;99964.59;4934373;29;19919;-88
2024/01/01 06:34:53;;;;;;;;;;;;;;;6.05;96.81;99974.09;4939819;29;19950;-87
2024/01/01 06:37:18;;;;;;;;;;;;;;;6.01;97.12;99995.69;4934458;29;19915;-87
2024/01/01 06:39:44;;;;;;;;;;;;;;;6.00;96.81;99992.28;4935802;29;20363;-88
2024/01/01 06:42:09;;;;;;;;;;;;;;;6.04;96.74;99999.09;4934009;29;19915;-86
2024/01/01 06:44:34;;;;;;;;;;;;;;;6.02;96.88;99997.41;4918223;29;20252;-87
2024/01/01 06:46:59;;;;;;;;;;;;;;;6.00;96.92;99997.44;4935613;29;19918;-86
2024/01/01 06:49:24;;;;;;;;;;;;;;;6.00;96.75;100002.59;4932926;29;19914;-87
2024/01/01 06:51:52;;;;;;;;;;;;;;;5.99;96.53;100003.44;4936588;29;19921;-87
2024/01/01 06:54:18;;;;;;;;;;;;;;;5.95;96.49;100013.88;4936678;29;20622;-87
2024/01/01 06:56:43;;;;;;;;;;;;;;;5.87;96.76;100006.28;4916950;29;20009;-86
2024/01/01 06:59:11;;;;;;;;;;;;;;;5.95;96.57;100016.47;4935866;29;19929;-87
2024/01/01 07:01:36;;;;;;;;;;;;;;;5.93;96.84;100026.78;4935935;29;19926;-87
2024/01/01 07:04:01;;;;;;;;;;;;;;;5.89;97.10;100036.34;4934231;29;19922;-86
2024/01/01 07:06:26;;;;;;;;;;;;;;;5.89;97.61;100031.19;4921021;29;19925;-87
2024/01/01 07:08:51;;;;;;;;;;;;;;;5.87;98.21;100026.94;4937146;29;19925;-86
2024/01/01 07:11:17;;;;;;;;;;;;;;;5.92;98.53;100035.41;4937854;29;19918;-87
2024/01/01 07:13:42;;;;;;;;;;;;;;;5.87;98.47;100032.94;4916487;29;19922;-87
2024/01/01 07:16:09;;;;;;;;;;;;;;;5.90;98.85;100030.31;4917960;29;19954;-87
2024/01/01 07:18:35;;;;;;;;;;;;;;;5.89;98.75;100036.34;4920015;29;20008;-87
2024/01/01 07:21:00;;;;;;;;;;;;;;;5.88;99.06;100042.38;4935515;29;20401;-87
2024/01/01 07:23:26;;;;;;;;;;;;;;;5.92;98.76;100040.59;4934387;29;19929;-87
2024/01/01 07:25:51;;;;;;;;;;;;;;;5.87;98.70;100043.25;4933804;29;19922;-87
2024/01/01 07:28:16;;;;;;;;;;;;;;;5.93;98.52;100037.13;4938314;29;19919;-88
2024/01/01 07:30:41;;;;;;;;;;;;;;;5.93;98.50;100055.19;4934234;29;19929;-87
2024/01/01 07:33:06;;;;;;;;;;;;;;;5.91;98.96;100051.78;4918361;29;19925;-87
2024/01/01 07:35:32;;;;;;;;;;;;;;;5.86;98.90;100062.22;4921055;29;19945;-88
2024/01/01 07:37:57;;;;;;;;;;;;;;;5.88;99.27;100064.78;4935243;29;20378;-87
2024/01/01 07:40:22;;;;;;;;;;;;;;;5.82;99.30;100064.88;4935977;29;20401;-87
2024/01/01 07:42:48;;;;;;;;;;;;;;;5.77;99.44;100070.13;4934263;29;19929;-87
2024/01/01 07:45:13;;;;;;;;;;;;;;;5.79;99.17;100073.53;4935411;29;19915;-88
2024/01/01 07:47:38;;;;;;;;;;;;;;;5.77;99.47;100083.03;4937019;29;19918;-87
2024/01/01 07:50:04;;;;;;;;;;;;;;;5.76;99.33;100086.50;4935413;29;19936;-88
2024/01/01 07:52:29;;;;;;;;;;;;;;;5.73;99.56;100096.88;4935365;29;19914;-87
2024/01/01 07:54:57;;;;;;;;;;;;;;;5.72;99.34;100092.59;4934526;29;19985;-88
2024/01/01 07:57:23;;;;;;;;;;;;;;;5.73;99.68;100096.88;4920245;29;19988;-87
2024/01/01 07:59:48;;;;;;;;;;;;;;;5.72;99.54;100097.75;4939144;29;19915;-87
2024/01/01 08:02:14;;;;;;;;;;;;;;;5.76;99.66;100091.66;4941504;29;20296;-87
2024/01/01 08:04:39;;;;;;;;;;;;;;;5.75;99.43;100093.38;4938784;29;19922;-87
2024/01/01 08:07:04;;;;;;;;;;;;;;;5.74;99.58;100098.56;4940790;29;19966;-87
2024/01/01 08:09:29;;;;;;;;;;;;;;;5.74;99.54;100103.75;4940613;29;19922;-87
2024/01/01 08:11:54;;;;;;;;;;;;;;;5.70;99.81;100107.25;4936444;29;19919;-88
2024/01/01 08:14:20;;;;;;;;;;;;;;;5.71;100.00;100114.13;4938514;29;19920;-87
2024/01/01 08:16:45;;;;;;;;;;;;;;;5.75;99.86;100120.94;4923017;29;19923;-85
2024/01/01 08:19:10;;;;;;;;;;;;;;;5.74;99.49;100119.22;4938742;29;20298;-87
2024/01/01 08:21:36;;;;;;;;;;;;;;;5.76;100.00;100127.81;4938666;29;19946;-87
2024/01/01 08:24:01;;;;;;;;;;;;;;;5.80;99.84;100134.63;4919382;29;19969;-87
2024/01/01 08:26:26;;;;;;;;;;;;;;;5.82;100.00;100147.47;4939693;29;20405;-87
2024/01/01 08:28:51;;;;;;;;;;;;;;;5.84;100.00;100133.66;4938663;29;20294;-88
2024/01/01 08:31:18;;;;;;;;;;;;;;;5.85;100.00;100140.53;4935024;29;19923;-86
2024/01/01 08:33:43;;;;;;;;;;;;;;;5.85;100.00;100143.13;4937068;29;19933;-87
2024/01/01 08:36:09;;;;;;;;;;;;;;;5.87;100.00;100151.69;4938043;29;19914;-87
2024/01/01 08:38:34;;;;;;;;;;;;;;;5.87;100.00;100149.09;4925335;29;19922;-88
2024/01/01 08:40:59;;;;;;;;;;;;;;;5.92;99.98;100160.22;4937676;29;19921;-87
2024/01/01 08:43:24;;;;;;;;;;;;;;;5.93;99.87;100150.72;4937141;29;19921;-87
2024/01/01 08:45:50;;;;;;;;;;;;;;;5.98;100.00;100168.72;4936679;29;19921;-87
2024/01/01 08:48:15;;;;;;;;;;;;;;;5.98;100.00;100171.31;4940755;29;19926;-86
2024/01/01 08:50:40;;;;;;;;;;;;;;;6.05;100.00;100171.22;4938273;29;20323;-87
2024/01/01 08:53:05;;;;;;;;;;;;;;;6.01;100.00;100168.69;4939677;29;20322;-87
2024/01/01 08:55:31;;;;;;;;;;;;;;;6.02;100.00;100180.72;4936192;29;20343;-89
2024/01/01 08:57:56;;;;;;;;;;;;;;;6.02;100.00;100170.41;4940812;29;19950;-87
2024/01/01 09:00:22;;;;;;;;;;;;;;;6.03;100.00;100175.56;4940537;29;20358;-87
2024/01/01 09:02:47;;;;;;;;;;;;;;;6.05;100.00;100175.50;4939033;29;19922;-88
2024/01/01 09:05:14;;;;;;;;;;;;;;;6.11;100.00;100185.75;4938896;29;20290;-87
2024/01/01 09:07:40;;;;;;;;;;;;;;;6.10;100.00;100186.63;4939362;29;19926;-86
2024/01/01 09:10:05;;;;;;;;;;;;;;;6.12;100.00;100187.44;4938396;29;21462;-88
2024/01/01 09:12:31;;;;;;;;;;;;;;;6.15;100.00;100189.94;4934976;29;20034;-88
2024/01/01 09:14:56;;;;;;;;;;;;;;;6.21;100.00;100189.84;4938628;29;20404;-86
2024/01/01 09:17:22;;;;;;;;;;;;;;;6.26;100.00;100200.09;4940147;29;19929;-88
2024/01/01 09:19:48;;;;;;;;;;;;;;;6.32;100.00;100206.91;4936092;29;20408;-87
2024/01/01 09:22:14;;;;;;;;;;;;;;;6.34;100.00;100200.81;4938635;29;19999;-88
2024/01/01 09:24:39;;;;;;;;;;;;;;;6.38;100.00;100214.50;4920010;29;19915;-87
2024/01/01 09:27:04;;;;;;;;;;;;;;;6.37;100.00;100212.81;4937825;29;19925;-88
2024/01/01 09:29:29;;;;;;;;;;;;;;;6.36;100.00;100222.31;4936078;29;19915;-87
2024/01/01 09:31:55;;;;;;;;;;;;;;;6.37;100.00;100228.31;4921415;29;20086;-88
2024/01/01 09:34:20;;;;;;;;;;;;;;;6.41;100.00;100223.94;4937791;29;19997;-87
2024/01/01 09:36:45;;;;;;;;;;;;;;;6.43;100.00;100228.22;4936163;28;19954;-87
2024/01/01 09:39:10;;;;;;;;;;;;;;;6.42;100.00;100221.34;4936640;29;20009;-87
2024/01/01 09:41:36;;;;;;;;;;;;;;;6.45;100.00;100229.03;4936607;29;19915;-87
2024/01/01 09:44:02;;;;;;;;;;;;;;;6.45;100.00;100238.50;4919304;29;20351;-87
2024/01/01 09:46:32;;;;;;;;;;;;;;;6.46;99.58;100238.50;4935944;29;20290;-87
2024/01/01 09:48:58;;;;;;;;;;;;;;;6.45;99.52;100234.22;4936065;29;19930;-87
2024/01/01 09:51:24;;;;;;;;;;;;;;;6.46;98.91;100251.41;4936913;29;19915;-86
2024/01/01 09:53:49;;;;;;;;;;;;;;;6.41;99.21;100250.63;4936784;29;20059;-87
2024/01/01 09:56:17;;;;;;;;;;;;;;;6.38;99.49;100255.84;4937637;29;19933;-88
2024/01/01 09:58:43;;;;;;;;;;;;;;;6.38;99.68;100250.69;4923836;29;19956;-87
2024/01/01 10:01:12;;;;;;;;;;;;;;;6.42;99.72;100264.38;4936709;29;20325;-87
2024/01/01 10:03:37;;;;;;;;;;;;;;;6.45;99.80;100262.63;4934415;29;19927;-87
2024/01/01 10:06:07;;;;;;;;;;;;;;;6.45;100.00;100262.63;4934805;29;19915;-87
2024/01/01 10:08:32;;;;;;;;;;;;;;;6.47;100.00;100260.88;4935532;29;19925;-87
2024/01/01 10:10:57;;;;;;;;;;;;;;;6.49;100.00;100264.25;4920191;29;19923;-88
2024/01/01 10:13:23;;;;;;;;;;;;;;;6.52;100.00;100264.19;4936029;29;19914;-88
2024/01/01 10:15:54;;;;;;;;;;;;;;;6.63;100.00;100270.94;4935984;29;19977;-87
2024/01/01 10:18:20;;;;;;;;;;;;;;;6.65;99.87;100261.41;4934638;29;19929;-86
2024/01/01 10:20:45;;;;;;;;;;;;;;;6.65;99.26;100284.69;4935760;29;19921;-90
2024/01/01 10:23:19;;;;;;;;;;;;;;;6.65;99.15;100279.50;4932906;29;19923;-89
2024/01/01 10:25:44;;;;;;;;;;;;;;;6.63;99.03;100284.69;4935744;29;19975;-90
2024/01/01 10:28:10;;;;;;;;;;;;;;;6.62;99.31;100285.56;4920480;29;19922;-91
2024/01/01 10:30:35;;;;;;;;;;;;;;;6.62;99.14;100297.66;4935851;29;19922;-88
2024/01/01 10:33:02;;;;;;;;;;;;;;;6.63;99.14;100291.59;4918321;29;19914;-87
2024/01/01 10:35:28;;;;;;;;;;;;;;;6.70;99.19;100298.34;4935560;29;20355;-87
2024/01/01 10:37:54;;;;;;;;;;;;;;;6.74;99.26;100297.41;4935233;29;20939;-87
2024/01/01 10:40:19;;;;;;;;;;;;;;;6.84;99.28;100306.69;4936357;29;20013;-90
2024/01/01 10:42:46;;;;;;;;;;;;;;;6.87;99.21;100313.56;4935642;29;20394;-87
2024/01/01 10:45:11;;;;;;;;;;;;;;;6.89;99.09;100313.50;4935053;29;19922;-88
2024/01/01 10:47:37;;;;;;;;;;;;;;;6.89;99.42;100308.34;4934707;29;19918;-88
2024/01/01 10:50:14;;;;;;;;;;;;;;;6.89;99.52;100308.34;4918170;29;19914;-88
2024/01/01 10:52:46;;;;;;;;;;;;;;;6.86;99.92;100303.22;4935374;29;19973;-89
2024/01/01 10:55:17;;;;;;;;;;;;;;;6.83;100.00;100299.81;4935227;29;19922;-88
2024/01/01 10:57:53;;;;;;;;;;;;;;;6.90;100.00;100299.72;4917866;29;19915;-88
2024/01/01 11:00:27;;;;;;;;;;;;;;;6.96;100.00;100312.53;4918822;29;20444;-87
2024/01/01 11:02:53;;;;;;;;;;;;;;;7.01;100.00;100315.03;4932787;29;19918;-90
2024/01/01 11:05:18;;;;;;;;;;;;;;;6.96;100.00;100304.78;4918998;29;19919;-88
2024/01/01 11:07:52;;;;;;;;;;;;;;;7.01;100.00;100307.25;4934340;29;19918;-87
2024/01/01 11:10:35;;;;;;;;;;;;;;;7.00;100.00;100306.44;4934042;29;19923;-88
2024/01/01 11:13:04;;;;;;;;;;;;;;;7.03;100.00;100316.69;4917292;29;19919;-88
2024/01/01 11:15:39;;;;;;;;;;;;;;;7.06;100.00;100315.78;4918584;29;19950;-88
2024/01/01 11:18:11;;;;;;;;;;;;;;;7.06;99.54;100316.63;4933239;29;19914;-87
2024/01/01 11:20:48;;;;;;;;;;;;;;;7.04;99.36;100318.38;4935644;29;19989;-89
2024/01/01 11:23:32;;;;;;;;;;;;;;;6.98;99.20;100323.69;4934021;29;19918;-88
2024/01/01 11:25:58;;;;;;;;;;;;;;;6.91;99.23;100327.28;4935023;29;19958;-89
2024/01/01 11:28:41;;;;;;;;;;;;;;;6.87;98.93;100325.63;4933160;29;19977;-88
2024/01/01 11:31:07;;;;;;;;;;;;;;;6.86;99.13;100340.28;4934664;29;19914;-87
2024/01/01 11:33:33;;;;;;;;;;;;;;;6.80;99.19;100340.41;4934243;29;19962;-87
2024/01/01 11:36:10;;;;;;;;;;;;;;;6.79;99.48;100343.84;4917323;29;20379;-87
2024/01/01 11:38:38;;;;;;;;;;;;;;;6.81;99.27;100340.38;4934197;29;19974;-87
2024/01/01 11:41:04;;;;;;;;;;;;;;;6.81;99.03;100348.16;4934715;29;19915;-86
2024/01/01 11:43:29;;;;;;;;;;;;;;;6.82;99.25;100351.56;4934134;29;19918;-86
2024/01/01 11:45:55;;;;;;;;;;;;;;;6.80;99.35;100346.44;4934369;29;19925;-87
2024/01/01 11:48:20;;;;;;;;;;;;;;;6.81;99.89;100352.44;4935131;29;19918;-88
2024/01/01 11:50:48;;;;;;;;;;;;;;;6.84;100.00;100365.31;4934598;29;20406;-87
2024/01/01 11:53:16;;;;;;;;;;;;;;;6.94;100.00;100353.91;4936088;29;19943;-87
2024/01/01 11:55:42;;;;;;;;;;;;;;;6.98;100.00;100357.31;4919508;29;19915;-89
2024/01/01 11:58:08;;;;;;;;;;;;;;;7.00;100.00;100365.91;4934272;29;20377;-88
2024/01/01 12:00:33;;;;;;;;;;;;;;;7.07;100.00;100364.06;4934301;29;19918;-88
2024/01/01 12:02:59;;;;;;;;;;;;;;;7.09;100.00;100363.13;4934018;29;20366;-87
2024/01/01 12:05:24;;;;;;;;;;;;;;;7.08;99.84;100371.78;4934304;28;19915;-87
2024/01/01 12:07:49;;;;;;;;;;;;;;;7.11;99.49;100353.63;4935294;29;20076;-88
2024/01/01 12:10:16;;;;;;;;;;;;;;;7.16;99.20;100360.44;4934634;29;19915;-87
2024/01/01 12:12:42;;;;;;;;;;;;;;;7.17;98.52;100369.91;4916994;29;19914;-88
2024/01/01 12:15:12;;;;;;;;;;;;;;;7.18;97.82;100366.41;4917910;28;19914;-87
2024/01/01 12:17:41;;;;;;;;;;;;;;;7.18;97.18;100361.22;4934903;29;19965;-88
2024/01/01 12:20:06;;;;;;;;;;;;;;;7.21;97.09;100356.00;4934059;29;19915;-90
2024/01/01 12:22:32;;;;;;;;;;;;;;;7.21;97.37;100353.41;4917145;29;19922;-89
2024/01/01 12:24:58;;;;;;;;;;;;;;;7.25;97.02;100350.78;4935248;29;19914;-89
2024/01/01 12:27:23;;;;;;;;;;;;;;;7.30;96.55;100361.00;4918381;29;20370;-87
2024/01/01 12:29:49;;;;;;;;;;;;;;;7.34;96.33;100352.31;4932816;29;20331;-89
2024/01/01 12:32:14;;;;;;;;;;;;;;;7.39;95.87;100345.28;4934095;29;19997;-88
2024/01/01 12:34:40;;;;;;;;;;;;;;;7.42;95.21;100355.59;4934380;29;19960;-87
2024/01/01 12:37:05;;;;;;;;;;;;;;;7.43;95.32;100361.59;4936960;29;20006;-89
2024/01/01 12:39:30;;;;;;;;;;;;;;;7.44;95.46;100360.72;4937092;29;20030;-88
2024/01/01 12:41:55;;;;;;;;;;;;;;;7.51;94.31;100364.06;4918208;29;20238;-88
2024/01/01 12:44:20;;;;;;;;;;;;;;;7.48;94.61;100353.75;4917228;29;19942;-89